createdAt,value
2022-12-08T00:01:09.254Z,37.17
2022-12-08T00:04:57.552Z,30.53
2022-12-08T00:08:37.832Z,29.60
2022-12-08T00:12:02.518Z,28.23
2022-12-08T00:15:25.508Z,31.80
2022-12-08T00:18:48.470Z,29.70
2022-12-08T00:22:14.713Z,29.77
2022-12-08T00:25:37.746Z,30.27
2022-12-08T00:29:00.699Z,31.17
2022-12-08T00:32:23.697Z,30.83
2022-12-08T00:35:46.737Z,29.67
2022-12-08T00:39:13.348Z,29.73
2022-12-08T00:42:36.659Z,36.00
2022-12-08T00:45:59.695Z,33.17
2022-12-08T00:49:23.124Z,36.63
2022-12-08T00:52:46.065Z,37.97
2022-12-08T00:56:10.530Z,38.73
2022-12-08T00:59:33.524Z,35.67
2022-12-08T01:02:56.505Z,36.70
2022-12-08T01:06:19.525Z,35.63
2022-12-08T01:09:42.500Z,37.23
2022-12-08T01:13:06.819Z,38.13
2022-12-08T01:16:31.469Z,40.07
2022-12-08T01:19:54.636Z,45.67
2022-12-08T01:23:17.554Z,36.77
2022-12-08T01:26:40.762Z,40.90
2022-12-08T01:30:06.229Z,51.53
2022-12-08T01:33:30.000Z,47.27
2022-12-08T01:36:52.983Z,53.10
2022-12-08T01:40:15.975Z,47.93
2022-12-08T01:43:55.480Z,53.80
2022-12-08T01:47:20.038Z,52.33
2022-12-08T01:50:44.012Z,48.93
2022-12-08T01:54:08.175Z,55.53
2022-12-08T01:57:34.283Z,56.90
2022-12-08T02:00:57.358Z,51.33
2022-12-08T02:04:21.770Z,52.97
2022-12-08T02:07:45.639Z,47.00
2022-12-08T02:11:11.102Z,49.60
2022-12-08T02:14:35.071Z,46.60
2022-12-08T02:18:04.482Z,49.97
2022-12-08T02:21:34.711Z,49.50
2022-12-08T02:25:04.405Z,48.93
2022-12-08T02:28:47.468Z,51.50
2022-12-08T02:32:35.806Z,49.43
2022-12-08T02:36:02.405Z,47.70
2022-12-08T02:39:33.847Z,46.57
2022-12-08T02:43:01.449Z,45.13
2022-12-08T02:46:29.831Z,47.67
2022-12-08T02:49:52.824Z,45.87
2022-12-08T02:53:17.146Z,46.13
2022-12-08T02:57:01.537Z,41.60
2022-12-08T03:00:28.332Z,35.87
2022-12-08T03:04:00.821Z,41.73
2022-12-08T03:07:29.988Z,39.20
2022-12-08T03:11:00.688Z,38.37
2022-12-08T03:14:24.016Z,41.00
2022-12-08T03:17:50.131Z,38.60
2022-12-08T03:21:15.834Z,40.90
2022-12-08T03:24:41.745Z,39.80
2022-12-08T03:28:06.889Z,38.93
2022-12-08T03:31:34.892Z,41.30
2022-12-08T03:35:00.114Z,36.37
2022-12-08T03:38:23.279Z,40.67
2022-12-08T03:41:46.881Z,43.90
2022-12-08T03:45:11.996Z,40.43
2022-12-08T03:48:34.963Z,37.03
2022-12-08T03:51:57.973Z,41.10
2022-12-08T03:55:21.438Z,38.50
2022-12-08T03:58:44.617Z,36.97
2022-12-08T04:02:09.012Z,34.37
2022-12-08T04:05:32.075Z,33.13
2022-12-08T04:08:55.320Z,32.43
2022-12-08T04:12:18.269Z,36.13
2022-12-08T04:15:45.246Z,35.53
2022-12-08T04:19:09.585Z,39.77
2022-12-08T04:22:32.584Z,31.93
2022-12-08T04:25:55.845Z,43.53
2022-12-08T04:29:18.832Z,35.73
2022-12-08T04:32:47.197Z,35.13
2022-12-08T04:36:12.132Z,32.43
2022-12-08T04:39:35.071Z,33.73
2022-12-08T04:42:58.040Z,33.17
2022-12-08T04:46:21.113Z,32.87
2022-12-08T04:49:44.392Z,32.70
2022-12-08T04:53:09.022Z,32.77
2022-12-08T04:56:31.968Z,34.03
2022-12-08T04:59:54.944Z,32.30
2022-12-08T05:03:22.513Z,32.23
2022-12-08T05:06:49.776Z,29.43
2022-12-08T05:10:14.112Z,33.07
2022-12-08T05:13:37.102Z,36.00
2022-12-08T05:17:03.644Z,35.67
2022-12-08T05:20:29.360Z,37.37
2022-12-08T05:23:52.333Z,34.47
2022-12-08T05:27:16.712Z,34.97
2022-12-08T05:30:39.735Z,37.10
2022-12-08T05:34:03.493Z,35.83
2022-12-08T05:37:26.670Z,41.40
2022-12-08T05:40:49.900Z,37.90
2022-12-08T05:44:14.219Z,39.00
2022-12-08T05:47:37.289Z,40.70
2022-12-08T05:51:00.965Z,43.23
2022-12-08T05:54:24.538Z,38.10
2022-12-08T05:57:47.502Z,46.03
2022-12-08T06:01:21.280Z,43.63
2022-12-08T06:04:44.425Z,44.90
2022-12-08T06:08:07.453Z,53.57
2022-12-08T06:11:31.717Z,51.53
2022-12-08T06:14:54.711Z,56.73
2022-12-08T06:18:19.148Z,58.67
2022-12-08T06:21:42.227Z,54.30
2022-12-08T06:25:09.827Z,55.83
2022-12-08T06:28:34.158Z,56.23
2022-12-08T06:31:57.373Z,64.10
2022-12-08T06:35:21.874Z,59.07
2022-12-08T06:38:45.133Z,60.23
2022-12-08T06:42:25.521Z,61.43
2022-12-08T06:45:48.560Z,64.53
2022-12-08T06:49:11.617Z,59.83
2022-12-08T06:52:43.160Z,54.17
2022-12-08T06:56:10.071Z,52.53
2022-12-08T06:59:33.103Z,48.53
2022-12-08T07:02:56.154Z,47.43
2022-12-08T07:06:23.471Z,51.67
2022-12-08T07:09:47.906Z,49.97
2022-12-08T07:13:10.944Z,45.77
2022-12-08T07:16:34.169Z,45.37
2022-12-08T07:19:57.231Z,51.00
2022-12-08T07:23:20.265Z,45.70
2022-12-08T07:26:44.627Z,50.70
2022-12-08T07:30:09.110Z,35.40
2022-12-08T07:33:32.945Z,34.77
2022-12-08T07:36:55.951Z,36.80
2022-12-08T07:40:19.096Z,35.00
2022-12-08T07:43:43.507Z,43.50
2022-12-08T07:47:06.740Z,41.53
2022-12-08T07:50:29.719Z,46.57
2022-12-08T07:53:54.569Z,41.97
2022-12-08T07:57:17.969Z,47.80
2022-12-08T08:00:42.347Z,41.63
2022-12-08T08:04:06.402Z,44.97
2022-12-08T08:07:31.471Z,49.83
2022-12-08T08:10:54.465Z,50.10
2022-12-08T08:14:17.441Z,40.53
2022-12-08T08:17:41.878Z,44.07
2022-12-08T08:21:22.070Z,41.53
2022-12-08T08:24:48.389Z,41.30
2022-12-08T08:28:11.350Z,41.70
2022-12-08T08:31:34.431Z,43.90
2022-12-08T08:34:58.830Z,48.97
2022-12-08T08:38:22.109Z,53.40
2022-12-08T08:41:45.224Z,48.57
2022-12-08T08:45:09.045Z,61.50
2022-12-08T08:48:33.284Z,65.43
2022-12-08T08:51:57.780Z,67.30
2022-12-08T08:55:20.795Z,69.13
2022-12-08T08:58:44.004Z,72.57
2022-12-08T09:02:07.184Z,79.60
2022-12-08T09:05:30.313Z,80.73
2022-12-08T09:08:54.833Z,86.63
2022-12-08T09:12:17.800Z,87.73
2022-12-08T09:15:40.904Z,98.53
2022-12-08T09:19:03.953Z,109.60
2022-12-08T09:22:26.949Z,93.57
2022-12-08T09:25:51.264Z,98.67
2022-12-08T09:29:14.711Z,96.53
2022-12-08T09:32:37.668Z,103.00
2022-12-08T09:36:06.434Z,104.63
2022-12-08T09:39:30.256Z,100.77
2022-12-08T09:43:02.192Z,104.67
2022-12-08T09:46:28.853Z,121.33
2022-12-08T09:50:02.769Z,85.13
2022-12-08T09:53:35.296Z,89.53
2022-12-08T09:57:01.850Z,89.30
2022-12-08T10:00:26.295Z,91.43
2022-12-08T10:03:49.841Z,89.70
2022-12-08T10:07:17.843Z,94.53
2022-12-08T10:10:47.805Z,103.03
2022-12-08T10:14:20.338Z,101.37
2022-12-08T10:17:48.484Z,93.27
2022-12-08T10:21:19.737Z,95.53
2022-12-08T10:24:49.848Z,117.27
2022-12-08T10:28:13.937Z,115.27
2022-12-08T10:31:37.053Z,112.97
2022-12-08T10:35:05.014Z,112.73
2022-12-08T10:38:32.278Z,123.27
2022-12-08T10:41:55.296Z,107.43
2022-12-08T10:45:28.479Z,122.23
2022-12-08T10:48:54.206Z,110.83
2022-12-08T10:52:25.228Z,119.33
2022-12-08T10:55:50.207Z,125.93
2022-12-08T10:59:17.023Z,124.27
2022-12-08T11:02:52.663Z,116.60
2022-12-08T11:06:19.805Z,109.40
2022-12-08T11:09:48.809Z,110.10
2022-12-08T11:13:20.771Z,110.63
2022-12-08T11:16:44.360Z,110.60
2022-12-08T11:20:23.253Z,106.97
2022-12-08T11:23:49.722Z,105.53
2022-12-08T11:27:14.081Z,113.10
2022-12-08T11:30:41.925Z,106.77
2022-12-08T11:34:06.765Z,114.10
2022-12-08T11:37:36.629Z,102.27
2022-12-08T11:41:07.464Z,120.67
2022-12-08T11:44:39.855Z,101.13
2022-12-08T11:48:12.303Z,102.83
2022-12-08T11:51:39.080Z,106.60
2022-12-08T11:55:06.853Z,112.80
2022-12-08T11:58:39.206Z,102.90
2022-12-08T12:02:05.319Z,111.73
2022-12-08T12:06:03.278Z,119.33
2022-12-08T12:09:22.402Z,119.93
2022-12-08T12:13:00.445Z,106.03
2022-12-08T12:16:51.604Z,137.97
2022-12-08T12:20:20.200Z,128.43
2022-12-08T12:23:46.675Z,118.23
2022-12-08T12:27:23.746Z,130.43
2022-12-08T12:30:59.428Z,123.27
2022-12-08T12:34:33.978Z,134.07
2022-12-08T12:38:42.045Z,119.20
2022-12-08T12:42:06.406Z,126.77
2022-12-08T12:45:32.921Z,131.73
2022-12-08T12:49:34.529Z,138.97
2022-12-08T12:52:57.684Z,126.20
2022-12-08T12:56:53.834Z,162.27
2022-12-08T13:00:20.533Z,126.27
2022-12-08T13:03:47.197Z,121.90
2022-12-08T13:07:14.919Z,107.77
2022-12-08T13:10:40.352Z,118.03
2022-12-08T13:14:06.263Z,106.50
2022-12-08T13:17:32.738Z,113.50
2022-12-08T13:21:01.896Z,80.60
2022-12-08T13:24:34.690Z,95.57
2022-12-08T13:27:57.674Z,89.93
2022-12-08T13:31:43.880Z,78.83
2022-12-08T13:35:12.742Z,64.33
2022-12-08T13:38:39.376Z,65.80
2022-12-08T13:42:08.365Z,64.87
2022-12-08T13:46:20.150Z,72.57
2022-12-08T13:51:23.831Z,78.17
2022-12-08T13:57:08.493Z,67.10
2022-12-08T14:00:34.142Z,71.07
2022-12-08T14:07:46.332Z,70.47
2022-12-08T14:11:11.210Z,79.20
2022-12-08T14:15:02.045Z,74.00
2022-12-08T14:18:25.866Z,84.60
2022-12-08T14:21:52.966Z,79.63
2022-12-08T14:25:18.245Z,83.37
2022-12-08T14:28:45.231Z,75.90
2022-12-08T14:32:24.351Z,98.57
2022-12-08T14:35:52.094Z,78.00
2022-12-08T14:39:15.226Z,86.63
2022-12-08T14:42:46.617Z,83.53
2022-12-08T14:46:22.990Z,95.43
2022-12-08T14:49:47.945Z,86.20
2022-12-08T14:53:17.198Z,102.93
2022-12-08T14:56:42.026Z,100.73
2022-12-08T15:00:21.830Z,101.87
2022-12-08T15:03:50.704Z,111.03
2022-12-08T15:07:17.034Z,95.27
2022-12-08T15:10:40.088Z,94.63
2022-12-08T15:14:03.593Z,96.23
2022-12-08T15:17:32.585Z,104.23
2022-12-08T15:21:02.256Z,129.20
2022-12-08T15:24:27.486Z,115.33
2022-12-08T15:27:52.995Z,116.87
2022-12-08T15:31:16.275Z,118.83
2022-12-08T15:34:40.701Z,117.93
2022-12-08T15:38:03.771Z,110.60
2022-12-08T15:41:26.909Z,122.77
2022-12-08T15:44:50.997Z,131.47
2022-12-08T15:48:22.150Z,109.67
2022-12-08T15:51:46.896Z,106.03
2022-12-08T15:55:13.749Z,121.50
2022-12-08T15:58:55.734Z,109.13
2022-12-08T16:02:22.924Z,91.33
2022-12-08T16:06:10.209Z,93.43
2022-12-08T16:09:35.205Z,92.93
2022-12-08T16:16:59.721Z,96.37
2022-12-08T16:20:32.695Z,99.93
2022-12-08T16:24:09.400Z,95.47
2022-12-08T16:28:00.008Z,93.77
2022-12-08T16:31:22.980Z,99.13
2022-12-08T16:34:46.559Z,94.13
2022-12-08T16:38:16.514Z,104.40
2022-12-08T16:41:57.290Z,100.20
2022-12-08T16:45:23.917Z,102.97
2022-12-08T16:48:47.052Z,106.10
2022-12-08T16:52:10.165Z,106.23
2022-12-08T16:55:33.768Z,103.50
2022-12-08T16:58:56.874Z,101.00
2022-12-08T17:02:21.321Z,110.50
2022-12-08T17:05:45.084Z,107.30
2022-12-08T17:09:08.152Z,100.13
2022-12-08T17:12:31.125Z,95.53
2022-12-08T17:15:54.100Z,99.53
2022-12-08T17:19:18.910Z,101.17
2022-12-08T17:22:44.611Z,94.43
2022-12-08T17:26:08.326Z,106.97
2022-12-08T17:29:31.944Z,97.20
2022-12-08T17:32:55.127Z,95.67
2022-12-08T17:36:20.421Z,103.20
2022-12-08T17:39:43.660Z,97.93
2022-12-08T17:43:06.757Z,93.73
2022-12-08T17:46:29.804Z,85.13
2022-12-08T17:49:53.057Z,94.33
2022-12-08T17:53:17.430Z,101.10
2022-12-08T17:56:40.515Z,89.53
2022-12-08T18:00:04.570Z,89.63
2022-12-08T18:03:34.849Z,81.77
2022-12-08T18:06:59.381Z,91.90
2022-12-08T18:10:23.914Z,90.63
2022-12-08T18:13:47.711Z,78.00
2022-12-08T18:17:10.742Z,91.17
2022-12-08T18:20:34.804Z,100.17
2022-12-08T18:23:57.778Z,83.73
2022-12-08T18:27:22.175Z,92.33
2022-12-08T18:30:45.244Z,85.87
2022-12-08T18:34:08.383Z,92.47
2022-12-08T18:37:31.534Z,76.97
2022-12-08T18:40:54.524Z,96.73
2022-12-08T18:44:19.524Z,79.70
2022-12-08T18:47:42.483Z,80.93
2022-12-08T18:51:10.044Z,87.83
2022-12-08T18:55:04.689Z,80.97
2022-12-08T18:58:16.110Z,86.20
2022-12-08T19:01:41.324Z,86.03
2022-12-08T19:05:04.591Z,82.43
2022-12-08T19:08:31.298Z,80.13
2022-12-08T19:11:55.133Z,86.10
2022-12-08T19:15:18.232Z,81.30
2022-12-08T19:18:42.717Z,81.63
2022-12-08T19:22:05.779Z,79.33
2022-12-08T19:25:28.799Z,82.53
2022-12-08T19:28:51.785Z,81.47
2022-12-08T19:32:14.889Z,86.20
2022-12-08T19:35:39.240Z,80.43
2022-12-08T19:39:19.784Z,86.97
2022-12-08T19:43:00.485Z,81.00
2022-12-08T19:46:25.172Z,93.70
2022-12-08T19:49:48.556Z,87.57
2022-12-08T19:53:14.723Z,97.20
2022-12-08T19:56:37.746Z,98.50
2022-12-08T20:00:00.745Z,107.63
2022-12-08T20:03:24.169Z,99.37
2022-12-08T20:06:48.068Z,85.77
2022-12-08T20:10:16.818Z,110.50
2022-12-08T20:13:44.600Z,104.67
2022-12-08T20:17:07.709Z,100.87
2022-12-08T20:20:30.944Z,103.93
2022-12-08T20:23:54.073Z,101.10
2022-12-08T20:27:18.578Z,104.93
2022-12-08T20:30:44.086Z,95.27
2022-12-08T20:34:07.134Z,95.23
2022-12-08T20:37:30.123Z,87.20
2022-12-08T20:40:53.223Z,101.43
2022-12-08T20:44:17.879Z,99.97
2022-12-08T20:47:40.852Z,87.20
2022-12-08T20:51:04.295Z,90.83
2022-12-08T20:54:28.081Z,82.33
2022-12-08T20:57:51.249Z,84.73
2022-12-08T21:01:17.293Z,84.97
2022-12-08T21:04:40.873Z,89.73
2022-12-08T21:08:04.630Z,73.47
2022-12-08T21:11:27.807Z,82.93
2022-12-08T21:14:50.846Z,70.47
2022-12-08T21:18:15.932Z,73.23
2022-12-08T21:21:39.393Z,80.83
2022-12-08T21:25:02.423Z,70.73
2022-12-08T21:28:25.593Z,79.73
2022-12-08T21:31:48.733Z,83.47
2022-12-08T21:35:13.438Z,78.07
2022-12-08T21:38:36.972Z,61.17
2022-12-08T21:42:18.799Z,75.27
2022-12-08T21:45:44.528Z,70.73
2022-12-08T21:49:07.744Z,73.57
2022-12-08T21:52:32.244Z,71.83
2022-12-08T21:55:55.211Z,66.07
2022-12-08T21:59:19.692Z,75.60
2022-12-08T22:02:43.247Z,73.97
2022-12-08T22:06:07.527Z,75.33
2022-12-08T22:09:31.976Z,76.97
2022-12-08T22:12:54.993Z,68.97
2022-12-08T22:16:18.376Z,72.17
2022-12-08T22:19:41.396Z,68.67
2022-12-08T22:23:04.668Z,77.73
2022-12-08T22:26:29.063Z,79.30
2022-12-08T22:29:52.112Z,82.87
2022-12-08T22:33:15.023Z,75.50
2022-12-08T22:36:38.004Z,73.67
2022-12-08T22:40:01.231Z,75.90
2022-12-08T22:43:25.590Z,67.50
2022-12-08T22:46:48.637Z,69.10
2022-12-08T22:50:12.455Z,65.70
2022-12-08T22:53:35.507Z,69.27
2022-12-08T22:56:58.467Z,72.83
2022-12-08T23:00:23.237Z,69.20
2022-12-08T23:03:46.349Z,82.07
2022-12-08T23:07:09.424Z,72.00
2022-12-08T23:10:32.766Z,70.77
2022-12-08T23:13:56.249Z,75.97
2022-12-08T23:17:21.091Z,65.40
2022-12-08T23:20:44.631Z,71.57
2022-12-08T23:24:08.115Z,79.40
2022-12-08T23:27:32.358Z,60.73
2022-12-08T23:30:55.405Z,62.23
2022-12-08T23:34:19.931Z,68.47
2022-12-08T23:37:42.939Z,59.83
2022-12-08T23:41:07.887Z,58.93
2022-12-08T23:44:31.205Z,65.00
2022-12-08T23:47:54.629Z,66.77
2022-12-08T23:51:19.612Z,61.80
2022-12-08T23:54:42.916Z,63.00
2022-12-08T23:58:05.953Z,50.87
